Morton, Wyoming
Current Conditions -  °F | °C
As of 3:53 PM on Monday 22 Dec 2014 (Local Time) from KLND Reporting Station
Overcast Overcast  
Wind Chill: 22°   Ceiling: 9500
Heat Index: 31°   Visibility: 10mi
Dew Point: 20°   Wind: 12mph
Humidity: 64%   Direction: 30°NNE
Pressure: 29.85"   Gusts: NA
Location:  43.1005°N, 108.934°W
Report Text: KLND 222253Z AUTO 03010KT 10SM OVC095 M01/M07 A2985 RMK AO2 PK WND 34030/2211 SLP131 T10061067
Loading
Personal Weather Stations






























Interactive Weather Map New forecast layout! Learn more

10-Day Weather Forecast

Advertisements
Track Severe Weather on mobile